createdAt,value
2023-03-30T00:00:39.226Z,955.3397
2023-03-30T00:01:40.018Z,955.3500
2023-03-30T00:02:40.929Z,955.3541
2023-03-30T00:03:42.134Z,955.3318
2023-03-30T00:04:43.274Z,955.3044
2023-03-30T00:05:44.350Z,955.2922
2023-03-30T00:06:45.107Z,955.2745
2023-03-30T00:07:45.930Z,955.2859
2023-03-30T00:08:46.672Z,955.2759
2023-03-30T00:09:47.513Z,955.2585
2023-03-30T00:10:48.301Z,955.2430
2023-03-30T00:11:49.092Z,955.2396
2023-03-30T00:12:49.881Z,955.2222
2023-03-30T00:13:50.663Z,955.1815
2023-03-30T00:14:51.445Z,955.1530
2023-03-30T00:15:52.184Z,955.1255
2023-03-30T00:16:53.154Z,955.1282
2023-03-30T00:17:54.187Z,955.0833
2023-03-30T00:18:54.972Z,955.0763
2023-03-30T00:19:55.746Z,955.0674
2023-03-30T00:20:56.524Z,955.0737
2023-03-30T00:21:57.313Z,955.0530
2023-03-30T00:22:58.075Z,955.0467
2023-03-30T00:23:58.870Z,955.0615
2023-03-30T00:24:59.654Z,955.0670
2023-03-30T00:26:00.481Z,955.0593
2023-03-30T00:27:01.229Z,955.0544
2023-03-30T00:28:02.025Z,955.0311
2023-03-30T00:29:02.771Z,955.0245
2023-03-30T00:30:03.551Z,955.0370
2023-03-30T00:31:04.470Z,955.0315
2023-03-30T00:32:05.642Z,954.9944
2023-03-30T00:33:06.463Z,954.9963
2023-03-30T00:34:07.528Z,955.0067
2023-03-30T00:35:08.311Z,955.0018
2023-03-30T00:36:09.226Z,954.9744
2023-03-30T00:37:10.030Z,954.9567
2023-03-30T00:38:10.850Z,954.9789
2023-03-30T00:39:11.650Z,955.0170
2023-03-30T00:40:12.412Z,954.9882
2023-03-30T00:41:13.233Z,955.0034
2023-03-30T00:42:14.033Z,955.0093
2023-03-30T00:43:14.839Z,955.0455
2023-03-30T00:44:15.549Z,955.0411
2023-03-30T00:45:16.321Z,954.9874
2023-03-30T00:46:17.043Z,954.9663
2023-03-30T00:47:17.906Z,954.9593
2023-03-30T00:48:18.672Z,954.9189
2023-03-30T00:49:19.561Z,954.8881
2023-03-30T00:50:20.359Z,954.8685
2023-03-30T00:51:21.154Z,954.8745
2023-03-30T00:52:21.948Z,954.8511
2023-03-30T00:53:22.747Z,954.8104
2023-03-30T00:54:23.557Z,954.7971
2023-03-30T00:55:24.364Z,954.8004
2023-03-30T00:56:25.109Z,954.7833
2023-03-30T00:57:25.982Z,954.7826
2023-03-30T00:58:26.816Z,954.7630
2023-03-30T00:59:27.631Z,954.7689
2023-03-30T01:00:28.415Z,954.8030
2023-03-30T01:01:29.332Z,954.8196
2023-03-30T01:02:30.732Z,954.8059
2023-03-30T01:03:31.813Z,954.8118
2023-03-30T01:04:32.830Z,954.7618
2023-03-30T01:05:33.628Z,954.7374
2023-03-30T01:06:34.419Z,954.7482
2023-03-30T01:07:35.231Z,954.7407
2023-03-30T01:08:36.028Z,954.7466
2023-03-30T01:09:36.792Z,954.7285
2023-03-30T01:10:37.609Z,954.6967
2023-03-30T01:11:38.397Z,954.6978
2023-03-30T01:12:39.231Z,954.6789
2023-03-30T01:13:40.015Z,954.6663
2023-03-30T01:14:40.847Z,954.6866
2023-03-30T01:15:41.665Z,954.6967
2023-03-30T01:16:42.462Z,954.6630
2023-03-30T01:17:43.299Z,954.6334
2023-03-30T01:18:44.132Z,954.6841
2023-03-30T01:19:44.928Z,954.6874
2023-03-30T01:20:45.641Z,954.6982
2023-03-30T01:21:46.348Z,954.7007
2023-03-30T01:22:46.980Z,954.6985
2023-03-30T01:23:47.630Z,954.6882
2023-03-30T01:24:48.421Z,954.6467
2023-03-30T01:25:49.302Z,954.6607
2023-03-30T01:26:50.084Z,954.6730
2023-03-30T01:27:50.922Z,954.6752
2023-03-30T01:28:51.696Z,954.6907
2023-03-30T01:29:52.557Z,954.6959
2023-03-30T01:30:53.473Z,954.6833
2023-03-30T01:31:54.398Z,954.6826
2023-03-30T01:32:55.240Z,954.6707
2023-03-30T01:33:55.997Z,954.6811
2023-03-30T01:34:56.773Z,954.6882
2023-03-30T01:35:57.642Z,954.7141
2023-03-30T01:36:58.440Z,954.7466
2023-03-30T01:37:59.241Z,954.7752
2023-03-30T01:39:00.073Z,954.8070
2023-03-30T01:40:00.840Z,954.8218
2023-03-30T01:41:01.850Z,954.8241
2023-03-30T01:42:03.241Z,954.8444
2023-03-30T01:43:04.056Z,954.8881
2023-03-30T01:44:04.873Z,955.0074
2023-03-30T01:45:05.700Z,955.1463
2023-03-30T01:46:06.849Z,955.2167
2023-03-30T01:47:07.762Z,955.2363
2023-03-30T01:48:08.586Z,955.2452
2023-03-30T01:49:09.389Z,955.1926
2023-03-30T01:50:10.137Z,955.1655
2023-03-30T01:51:10.909Z,955.1245
2023-03-30T01:52:11.799Z,955.0622
2023-03-30T01:53:12.760Z,955.0137
2023-03-30T01:54:13.502Z,954.9385
2023-03-30T01:55:14.315Z,954.8896
2023-03-30T01:56:15.118Z,954.8163
2023-03-30T01:57:16.000Z,954.7330
2023-03-30T01:58:16.882Z,954.6655
2023-03-30T01:59:17.653Z,954.5922
2023-03-30T02:00:18.414Z,954.5533
2023-03-30T02:01:19.184Z,954.5289
2023-03-30T02:02:19.962Z,954.5278
2023-03-30T02:03:20.759Z,954.5381
2023-03-30T02:04:21.732Z,954.5582
2023-03-30T02:05:22.567Z,954.5522
2023-03-30T02:06:23.349Z,954.5422
2023-03-30T02:07:24.155Z,954.4978
2023-03-30T02:08:24.940Z,954.4585
2023-03-30T02:09:25.756Z,954.4111
2023-03-30T02:10:26.529Z,954.3489
2023-03-30T02:11:27.283Z,954.2704
2023-03-30T02:12:28.064Z,954.2318
2023-03-30T02:13:28.908Z,954.2192
2023-03-30T02:14:29.719Z,954.2108
2023-03-30T02:15:30.482Z,954.2037
2023-03-30T02:16:31.290Z,954.1885
2023-03-30T02:17:32.223Z,954.2074
2023-03-30T02:18:33.979Z,954.2159
2023-03-30T02:19:34.751Z,954.2119
2023-03-30T02:20:35.557Z,954.2093
2023-03-30T02:21:36.330Z,954.1900
2023-03-30T02:22:37.149Z,954.1693
2023-03-30T02:23:37.958Z,954.1666
2023-03-30T02:24:38.719Z,954.1644
2023-03-30T02:25:39.510Z,954.1463
2023-03-30T02:26:40.321Z,954.1270
2023-03-30T02:27:41.101Z,954.1037
2023-03-30T02:28:41.897Z,954.0737
2023-03-30T02:29:42.774Z,954.0593
2023-03-30T02:30:43.511Z,954.0193
2023-03-30T02:31:44.354Z,953.9859
2023-03-30T02:32:45.245Z,953.9926
2023-03-30T02:33:46.042Z,953.9918
2023-03-30T02:34:46.872Z,953.9722
2023-03-30T02:35:47.702Z,953.9474
2023-03-30T02:36:48.447Z,953.9185
2023-03-30T02:37:49.269Z,953.8915
2023-03-30T02:38:50.067Z,953.8745
2023-03-30T02:39:50.876Z,953.8544
2023-03-30T02:40:51.643Z,953.8593
2023-03-30T02:41:52.428Z,953.8785
2023-03-30T02:42:53.241Z,953.9163
2023-03-30T02:43:54.157Z,953.9366
2023-03-30T02:44:54.948Z,953.8937
2023-03-30T02:45:55.730Z,953.7844
2023-03-30T02:46:56.558Z,953.7015
2023-03-30T02:47:57.513Z,953.6748
2023-03-30T02:48:58.546Z,953.6755
2023-03-30T02:49:59.329Z,953.6770
2023-03-30T02:51:00.126Z,953.6911
2023-03-30T02:52:00.941Z,953.7004
2023-03-30T02:53:01.749Z,953.7230
2023-03-30T02:54:02.559Z,953.7122
2023-03-30T02:55:03.365Z,953.6996
2023-03-30T02:56:05.161Z,953.6774
2023-03-30T02:57:05.984Z,953.6900
2023-03-30T02:58:06.780Z,953.6959
2023-03-30T02:59:07.562Z,953.6741
2023-03-30T03:00:08.353Z,953.6541
2023-03-30T03:01:09.151Z,953.6622
2023-03-30T03:02:10.055Z,953.6922
2023-03-30T03:03:10.897Z,953.6896
2023-03-30T03:04:12.173Z,953.6600
2023-03-30T03:05:12.985Z,953.6378
2023-03-30T03:06:13.873Z,953.6307
2023-03-30T03:07:14.719Z,953.5770
2023-03-30T03:08:15.501Z,953.4915
2023-03-30T03:09:16.290Z,953.4304
2023-03-30T03:10:17.069Z,953.3834
2023-03-30T03:11:17.867Z,953.3600
2023-03-30T03:12:18.678Z,953.3748
2023-03-30T03:13:19.443Z,953.3600
2023-03-30T03:14:20.231Z,953.3026
2023-03-30T03:15:21.101Z,953.2311
2023-03-30T03:16:21.984Z,953.2267
2023-03-30T03:17:22.879Z,953.2303
2023-03-30T03:18:23.700Z,953.2292
2023-03-30T03:19:24.464Z,953.1708
2023-03-30T03:20:25.298Z,953.0818
2023-03-30T03:21:26.070Z,952.9800
2023-03-30T03:22:26.867Z,952.9641
2023-03-30T03:23:27.682Z,952.9534
2023-03-30T03:24:28.538Z,952.9859
2023-03-30T03:25:29.505Z,952.9814
2023-03-30T03:26:30.317Z,952.9207
2023-03-30T03:27:31.438Z,952.8818
2023-03-30T03:28:32.769Z,952.9174
2023-03-30T03:29:34.247Z,952.8811
2023-03-30T03:30:35.374Z,952.8463
2023-03-30T03:31:37.080Z,952.8293
2023-03-30T03:32:38.992Z,952.8503
2023-03-30T03:33:40.091Z,952.8396
2023-03-30T03:34:40.859Z,952.7774
2023-03-30T03:35:41.716Z,952.7645
2023-03-30T03:36:42.628Z,952.7496
2023-03-30T03:37:43.824Z,952.6671
2023-03-30T03:38:44.669Z,952.6285
2023-03-30T03:39:45.439Z,952.6200
2023-03-30T03:40:46.236Z,952.6285
2023-03-30T03:41:47.131Z,952.6015
2023-03-30T03:42:48.261Z,952.5463
2023-03-30T03:43:49.142Z,952.5689
2023-03-30T03:44:49.997Z,952.5426
2023-03-30T03:45:50.860Z,952.5130
2023-03-30T03:46:51.814Z,952.5392
2023-03-30T03:47:52.856Z,952.5674
2023-03-30T03:48:53.919Z,952.5566
2023-03-30T03:49:54.977Z,952.5197
2023-03-30T03:50:55.860Z,952.5100
2023-03-30T03:51:56.636Z,952.4811
2023-03-30T03:52:57.453Z,952.4648
2023-03-30T03:53:58.230Z,952.4752
2023-03-30T03:54:59.148Z,952.4859
2023-03-30T03:56:00.048Z,952.5685
2023-03-30T03:57:00.959Z,952.5611
2023-03-30T03:58:01.796Z,952.5126
2023-03-30T03:59:02.613Z,952.4404
2023-03-30T04:00:03.470Z,952.4056
2023-03-30T04:01:04.708Z,952.4248
2023-03-30T04:02:05.702Z,952.4648
2023-03-30T04:03:06.436Z,952.4766
2023-03-30T04:04:07.331Z,952.5330
2023-03-30T04:05:08.230Z,952.5600
2023-03-30T04:06:09.088Z,952.5455
2023-03-30T04:07:09.913Z,952.5096
2023-03-30T04:08:10.928Z,952.4818
2023-03-30T04:09:11.876Z,952.4537
2023-03-30T04:10:12.671Z,952.4141
2023-03-30T04:11:13.468Z,952.3963
2023-03-30T04:12:14.346Z,952.3963
2023-03-30T04:13:15.152Z,952.3937
2023-03-30T04:14:15.908Z,952.3818
2023-03-30T04:15:16.663Z,952.3878
2023-03-30T04:16:17.495Z,952.3907
2023-03-30T04:17:18.268Z,952.3682
2023-03-30T04:18:19.115Z,952.3533
2023-03-30T04:19:19.880Z,952.3367
2023-03-30T04:20:20.681Z,952.3626
2023-03-30T04:21:21.452Z,952.3685
2023-03-30T04:22:22.222Z,952.3856
2023-03-30T04:23:23.005Z,952.4230
2023-03-30T04:24:23.865Z,952.4726
2023-03-30T04:25:24.706Z,952.5500
2023-03-30T04:26:25.490Z,952.6326
2023-03-30T04:27:26.271Z,952.6737
2023-03-30T04:28:27.011Z,952.6700
2023-03-30T04:29:27.749Z,952.6700
2023-03-30T04:30:28.447Z,952.6630
2023-03-30T04:31:29.125Z,952.6234
2023-03-30T04:32:29.791Z,952.5611
2023-03-30T04:33:30.590Z,952.5270
2023-03-30T04:34:31.403Z,952.4789
2023-03-30T04:35:32.205Z,952.4445
2023-03-30T04:36:33.069Z,952.3845
2023-03-30T04:37:33.851Z,952.3430
2023-03-30T04:38:34.673Z,952.3448
2023-03-30T04:39:35.445Z,952.3578
2023-03-30T04:40:36.598Z,952.3615
2023-03-30T04:41:37.356Z,952.3074
2023-03-30T04:42:38.181Z,952.2400
2023-03-30T04:43:39.093Z,952.1741
2023-03-30T04:44:39.897Z,952.1578
2023-03-30T04:45:40.715Z,952.1822
2023-03-30T04:46:41.533Z,952.1811
2023-03-30T04:47:42.374Z,952.1415
2023-03-30T04:48:43.182Z,952.1270
2023-03-30T04:49:43.961Z,952.1500
2023-03-30T04:50:44.774Z,952.1981
2023-03-30T04:51:45.550Z,952.2159
2023-03-30T04:52:46.298Z,952.2230
2023-03-30T04:53:47.102Z,952.2203
2023-03-30T04:54:47.909Z,952.2222
2023-03-30T04:55:48.846Z,952.2407
2023-03-30T04:56:49.768Z,952.2819
2023-03-30T04:57:50.564Z,952.2867
2023-03-30T04:58:51.353Z,952.2541
2023-03-30T04:59:52.630Z,952.2522
2023-03-30T05:00:53.450Z,952.2904
2023-03-30T05:01:54.214Z,952.3393
2023-03-30T05:02:54.985Z,952.3533
2023-03-30T05:03:55.893Z,952.3515
2023-03-30T05:04:56.838Z,952.3900
2023-03-30T05:05:57.621Z,952.4534
2023-03-30T05:06:58.286Z,952.4696
2023-03-30T05:07:59.015Z,952.4770
2023-03-30T05:09:00.033Z,952.4500
2023-03-30T05:10:01.104Z,952.4004
2023-03-30T05:11:02.264Z,952.3852
2023-03-30T05:12:03.792Z,952.4015
2023-03-30T05:13:05.204Z,952.3945
2023-03-30T05:14:06.435Z,952.3496
2023-03-30T05:15:07.451Z,952.3330
2023-03-30T05:16:08.286Z,952.3474
2023-03-30T05:17:09.261Z,952.3626
2023-03-30T05:18:10.460Z,952.3370
2023-03-30T05:19:11.416Z,952.2563
2023-03-30T05:20:12.274Z,952.2489
2023-03-30T05:21:13.150Z,952.2693
2023-03-30T05:22:13.960Z,952.2903
2023-03-30T05:23:14.873Z,952.3156
2023-03-30T05:24:15.862Z,952.3600
2023-03-30T05:25:16.693Z,952.4137
2023-03-30T05:26:17.585Z,952.4633
2023-03-30T05:27:18.441Z,952.4548
2023-03-30T05:28:19.280Z,952.3856
2023-03-30T05:29:20.062Z,952.2930
2023-03-30T05:30:21.100Z,952.2522
2023-03-30T05:31:22.018Z,952.2163
2023-03-30T05:32:22.917Z,952.1633
2023-03-30T05:33:23.742Z,952.2648
2023-03-30T05:34:24.561Z,952.3815
2023-03-30T05:35:25.378Z,952.4085
2023-03-30T05:36:26.183Z,952.4404
2023-03-30T05:37:26.990Z,952.4296
2023-03-30T05:38:27.894Z,952.3918
2023-03-30T05:39:28.674Z,952.3574
2023-03-30T05:40:29.454Z,952.2778
2023-03-30T05:41:30.427Z,952.2737
2023-03-30T05:42:31.308Z,952.2485
2023-03-30T05:43:32.079Z,952.2018
2023-03-30T05:44:32.901Z,952.1578
2023-03-30T05:45:33.678Z,952.1467
2023-03-30T05:46:34.616Z,952.1515
2023-03-30T05:47:35.558Z,952.1978
2023-03-30T05:48:36.320Z,952.2004
2023-03-30T05:49:37.092Z,952.2048
2023-03-30T05:50:37.875Z,952.2382
2023-03-30T05:51:38.693Z,952.2278
2023-03-30T05:52:39.578Z,952.2278
2023-03-30T05:53:40.375Z,952.2296
2023-03-30T05:54:41.194Z,952.2289
2023-03-30T05:55:41.975Z,952.1815
2023-03-30T05:56:42.783Z,952.1900
2023-03-30T05:57:43.566Z,952.1837
2023-03-30T05:58:44.333Z,952.1956
2023-03-30T05:59:45.138Z,952.2433
2023-03-30T06:00:45.918Z,952.2430
2023-03-30T06:01:46.751Z,952.2259
2023-03-30T06:02:47.611Z,952.2074
2023-03-30T06:03:48.802Z,952.1967
2023-03-30T06:04:50.206Z,952.2163
2023-03-30T06:05:51.060Z,952.2266
2023-03-30T06:06:51.847Z,952.2178
2023-03-30T06:07:52.661Z,952.2289
2023-03-30T06:08:53.426Z,952.2255
2023-03-30T06:09:54.286Z,952.2715
2023-03-30T06:10:55.066Z,952.2170
2023-03-30T06:11:55.897Z,952.1874
2023-03-30T06:12:56.687Z,952.1815
2023-03-30T06:13:57.488Z,952.1678
2023-03-30T06:14:58.267Z,952.1396
2023-03-30T06:16:02.439Z,952.1196
2023-03-30T06:17:00.258Z,952.1024
2023-03-30T06:18:00.986Z,952.0856
2023-03-30T06:19:01.850Z,952.0726
2023-03-30T06:20:02.606Z,952.0455
2023-03-30T06:21:03.571Z,952.0022
2023-03-30T06:22:04.835Z,952.0186
2023-03-30T06:23:05.609Z,952.0526
2023-03-30T06:24:06.365Z,952.0641
2023-03-30T06:25:07.198Z,952.0752
2023-03-30T06:26:07.979Z,952.1093
2023-03-30T06:27:08.788Z,952.0248
2023-03-30T06:28:09.620Z,951.9518
2023-03-30T06:29:10.397Z,951.9426
2023-03-30T06:30:11.175Z,951.9019
2023-03-30T06:31:11.940Z,951.8367
2023-03-30T06:32:12.835Z,951.7933
2023-03-30T06:33:13.763Z,951.8063
2023-03-30T06:34:14.579Z,951.8459
2023-03-30T06:35:15.482Z,951.8644
2023-03-30T06:36:16.213Z,951.8952
2023-03-30T06:37:16.992Z,951.9774
2023-03-30T06:38:17.785Z,952.0315
2023-03-30T06:39:18.548Z,952.0182
2023-03-30T06:40:19.369Z,952.0241
2023-03-30T06:41:20.173Z,952.0478
2023-03-30T06:42:20.819Z,952.0252
2023-03-30T06:43:21.485Z,952.0089
2023-03-30T06:44:22.152Z,951.9926
2023-03-30T06:45:22.902Z,952.0007
2023-03-30T06:46:23.792Z,952.0618
2023-03-30T06:47:24.624Z,952.1059
2023-03-30T06:48:25.414Z,952.1270
2023-03-30T06:49:26.208Z,952.1556
2023-03-30T06:50:27.117Z,952.2097
2023-03-30T06:51:28.013Z,952.3715
2023-03-30T06:52:28.811Z,952.6497
2023-03-30T06:53:29.629Z,952.9704
2023-03-30T06:54:31.259Z,953.2015
2023-03-30T06:55:32.059Z,953.2659
2023-03-30T06:56:32.811Z,953.1707
2023-03-30T06:57:33.783Z,953.0096
2023-03-30T06:58:34.580Z,952.8822
2023-03-30T06:59:35.347Z,952.8722
2023-03-30T07:00:36.111Z,952.8522
2023-03-30T07:01:36.917Z,952.7548
2023-03-30T07:02:37.755Z,952.7656
2023-03-30T07:03:38.515Z,952.7522
2023-03-30T07:04:39.323Z,952.7626
2023-03-30T07:05:40.067Z,952.8030
2023-03-30T07:06:40.863Z,952.8356
2023-03-30T07:07:41.675Z,952.8289
2023-03-30T07:08:42.522Z,952.8489
2023-03-30T07:09:43.315Z,952.8737
2023-03-30T07:10:44.170Z,952.9203
2023-03-30T07:11:44.948Z,953.0167
2023-03-30T07:12:45.738Z,953.0315
2023-03-30T07:13:46.549Z,953.0118
2023-03-30T07:14:47.321Z,952.9778
2023-03-30T07:15:48.093Z,952.9445
2023-03-30T07:16:48.978Z,952.9803
2023-03-30T07:17:49.863Z,953.0685
2023-03-30T07:18:50.618Z,953.1400
2023-03-30T07:19:51.394Z,953.1633
2023-03-30T07:20:52.129Z,953.1841
2023-03-30T07:21:53.961Z,953.2067
2023-03-30T07:22:54.657Z,953.1326
2023-03-30T07:23:55.473Z,953.0952
2023-03-30T07:24:56.242Z,953.0752
2023-03-30T07:25:57.071Z,953.0370
2023-03-30T07:26:57.863Z,953.0792
2023-03-30T07:27:59.945Z,953.1003
2023-03-30T07:29:00.738Z,953.1637
2023-03-30T07:30:10.162Z,953.2303
2023-03-30T07:31:03.174Z,953.1850
2023-03-30T07:32:04.226Z,953.0700
2023-03-30T07:33:04.975Z,953.0452
2023-03-30T07:34:05.704Z,953.2040
2023-03-30T07:35:06.353Z,953.2033
2023-03-30T07:36:07.256Z,953.1744
2023-03-30T07:37:07.969Z,953.1822
2023-03-30T07:38:08.722Z,953.1689
2023-03-30T07:39:10.258Z,953.1837
2023-03-30T07:40:11.065Z,953.2218
2023-03-30T07:44:13.574Z,953.0829
2023-03-30T07:45:16.479Z,953.0734
2023-03-30T07:46:15.189Z,953.0600
2023-03-30T07:47:15.843Z,953.0489
2023-03-30T07:48:16.609Z,953.0337
2023-03-30T07:49:17.264Z,953.0237
2023-03-30T07:50:17.990Z,953.0552
2023-03-30T07:51:18.753Z,953.0944
2023-03-30T07:52:19.513Z,953.1234
2023-03-30T07:53:20.223Z,953.1648
2023-03-30T07:54:20.954Z,953.1915
2023-03-30T07:55:21.657Z,953.1737
2023-03-30T07:56:22.616Z,953.1382
2023-03-30T07:57:23.401Z,953.1404
2023-03-30T07:58:25.241Z,953.1915
2023-03-30T07:59:27.078Z,953.2389
2023-03-30T08:00:27.946Z,953.2774
2023-03-30T08:01:28.683Z,953.3096
2023-03-30T08:03:30.200Z,953.4189
2023-03-30T08:04:31.074Z,953.4615
2023-03-30T08:05:31.936Z,953.4626
2023-03-30T08:06:32.724Z,953.4270
2023-03-30T08:07:33.422Z,953.4293
2023-03-30T08:08:34.061Z,953.4578
2023-03-30T08:09:34.835Z,953.4230
2023-03-30T08:10:35.654Z,953.3782
2023-03-30T08:11:36.334Z,953.3256
2023-03-30T08:12:37.103Z,953.2763
2023-03-30T08:15:39.065Z,953.2626
2023-03-30T08:16:39.882Z,953.2422
2023-03-30T08:17:40.684Z,953.2348
2023-03-30T08:18:41.457Z,953.3115
2023-03-30T08:19:42.210Z,953.3837
2023-03-30T08:20:42.968Z,953.3622
2023-03-30T08:21:43.760Z,953.3489
2023-03-30T08:22:44.522Z,953.3926
2023-03-30T08:23:45.270Z,953.3637
2023-03-30T08:24:46.084Z,953.4033
2023-03-30T08:25:47.231Z,953.3870
2023-03-30T08:26:48.228Z,953.3893
2023-03-30T08:27:49.012Z,953.4119
2023-03-30T08:28:49.883Z,953.4648
2023-03-30T08:29:50.647Z,953.5404
2023-03-30T08:30:51.459Z,953.5981
2023-03-30T08:31:52.260Z,953.6137
2023-03-30T08:32:53.133Z,953.6452
2023-03-30T08:33:54.006Z,953.6789
2023-03-30T08:34:54.755Z,953.6985
2023-03-30T08:35:55.602Z,953.6707
2023-03-30T08:36:56.373Z,953.6393
2023-03-30T08:37:57.139Z,953.6182
2023-03-30T08:38:57.942Z,953.5659
2023-03-30T08:39:58.707Z,953.4826
2023-03-30T08:40:59.569Z,953.4174
2023-03-30T08:42:00.348Z,953.4000
2023-03-30T08:43:01.150Z,953.3863
2023-03-30T08:44:01.914Z,953.3896
2023-03-30T08:45:02.683Z,953.3963
2023-03-30T08:46:03.548Z,953.4485
2023-03-30T08:47:04.329Z,953.4730
2023-03-30T08:48:05.278Z,953.4870
2023-03-30T08:49:07.099Z,953.4714
2023-03-30T08:50:07.889Z,953.4781
2023-03-30T08:51:08.745Z,953.4696
2023-03-30T08:52:09.541Z,953.4608
2023-03-30T08:53:10.311Z,953.5000
2023-03-30T08:54:11.073Z,953.5552
2023-03-30T08:55:12.152Z,953.5485
2023-03-30T08:56:12.945Z,953.5756
2023-03-30T08:57:13.846Z,953.6215
2023-03-30T08:58:14.780Z,953.6544
2023-03-30T08:59:15.566Z,953.6245
2023-03-30T09:00:16.395Z,953.6226
2023-03-30T09:01:17.270Z,953.6130
2023-03-30T09:02:18.122Z,953.6100
2023-03-30T09:03:18.952Z,953.6093
2023-03-30T09:04:19.622Z,953.6074
2023-03-30T09:05:20.337Z,953.6318
2023-03-30T09:06:21.112Z,953.6878
2023-03-30T09:07:21.884Z,953.6744
2023-03-30T09:08:22.662Z,953.7122
2023-03-30T09:09:23.722Z,953.7244
2023-03-30T09:10:24.415Z,953.7396
2023-03-30T09:11:25.152Z,953.7811
2023-03-30T09:12:25.871Z,953.7826
2023-03-30T09:13:26.667Z,953.7978
2023-03-30T09:14:27.457Z,953.8563
2023-03-30T09:15:30.466Z,953.8707
2023-03-30T09:16:30.294Z,953.8950
2023-03-30T09:17:31.122Z,953.9167
2023-03-30T09:18:31.876Z,953.9674
2023-03-30T09:19:32.659Z,954.0208
2023-03-30T09:20:33.429Z,954.1422
2023-03-30T09:21:34.217Z,954.1841
2023-03-30T09:22:34.994Z,954.2778
2023-03-30T09:23:35.782Z,954.2819
2023-03-30T09:24:36.722Z,954.3078
2023-03-30T09:25:37.507Z,954.3437
2023-03-30T09:26:38.294Z,954.3704
2023-03-30T09:27:39.065Z,954.4315
2023-03-30T09:28:39.843Z,954.4445
2023-03-30T09:29:40.645Z,954.4963
2023-03-30T09:30:41.411Z,954.5689
2023-03-30T09:31:42.241Z,954.7537
2023-03-30T09:32:43.002Z,954.7800
2023-03-30T09:33:43.837Z,954.7244
2023-03-30T09:34:44.612Z,954.7452
2023-03-30T09:35:45.455Z,954.7400
2023-03-30T09:36:46.255Z,954.7292
2023-03-30T09:37:47.001Z,954.7596
2023-03-30T09:38:47.781Z,954.8804
2023-03-30T09:39:48.581Z,954.9563
2023-03-30T09:40:49.393Z,954.9644
2023-03-30T09:41:50.208Z,954.9019
2023-03-30T09:42:50.941Z,954.8292
2023-03-30T09:43:51.697Z,954.8329
2023-03-30T09:44:52.491Z,954.8059
2023-03-30T09:45:53.315Z,954.6823
2023-03-30T09:46:54.100Z,954.8022
2023-03-30T09:47:54.921Z,954.8448
2023-03-30T09:48:55.780Z,954.8600
2023-03-30T09:49:56.534Z,954.9215
2023-03-30T09:50:57.302Z,955.0170
2023-03-30T09:51:58.074Z,955.1008
2023-03-30T09:52:58.854Z,955.1696
2023-03-30T09:53:59.654Z,955.2593
2023-03-30T09:55:00.397Z,955.3526
2023-03-30T09:56:01.204Z,955.4207
2023-03-30T09:57:02.099Z,955.4496
2023-03-30T09:58:02.984Z,955.4715
2023-03-30T09:59:03.784Z,955.4896
2023-03-30T10:00:04.550Z,955.4748
2023-03-30T10:01:05.365Z,955.4611
2023-03-30T10:02:07.680Z,955.4744
2023-03-30T10:03:07.014Z,955.4696
2023-03-30T10:04:07.996Z,955.3704
2023-03-30T10:05:08.983Z,955.1981
2023-03-30T10:06:09.720Z,955.0889
2023-03-30T10:07:18.515Z,955.0900
2023-03-30T10:08:12.633Z,955.0696
2023-03-30T10:09:13.417Z,955.0722
2023-03-30T10:10:14.140Z,955.0148
2023-03-30T10:11:14.914Z,955.0411
2023-03-30T10:12:15.678Z,954.9815
2023-03-30T10:13:16.423Z,954.9248
2023-03-30T10:14:17.177Z,954.8511
2023-03-30T10:15:17.940Z,954.8470
2023-03-30T10:16:18.712Z,954.8074
2023-03-30T10:17:19.545Z,954.8074
2023-03-30T10:18:20.304Z,954.8174
2023-03-30T10:19:21.104Z,954.8193
2023-03-30T10:20:21.874Z,954.8218
2023-03-30T10:21:22.671Z,954.8522
2023-03-30T10:22:23.448Z,954.8734
2023-03-30T10:23:24.254Z,954.9681
2023-03-30T10:24:24.993Z,955.0370
2023-03-30T10:25:25.795Z,955.0515
2023-03-30T10:26:26.565Z,955.1266
2023-03-30T10:27:27.374Z,955.1782
2023-03-30T10:28:28.135Z,955.1959
2023-03-30T10:29:28.946Z,955.1804
2023-03-30T10:30:29.687Z,955.1889
2023-03-30T10:31:30.356Z,955.2122
2023-03-30T10:32:31.116Z,955.2207
2023-03-30T10:33:31.903Z,955.2526
2023-03-30T10:34:32.684Z,955.2645
2023-03-30T10:35:33.459Z,955.2648
2023-03-30T10:36:34.240Z,955.2763
2023-03-30T10:37:35.032Z,955.2811
2023-03-30T10:38:35.920Z,955.2593
2023-03-30T10:39:36.699Z,955.2455
2023-03-30T10:40:37.506Z,955.2393
2023-03-30T10:41:38.371Z,955.2285
2023-03-30T10:42:39.166Z,955.2185
2023-03-30T10:43:39.946Z,955.2396
2023-03-30T10:44:40.604Z,955.2534
2023-03-30T10:45:41.416Z,955.2641
2023-03-30T10:46:42.605Z,955.2504
2023-03-30T10:47:43.340Z,955.2192
2023-03-30T10:48:44.115Z,955.2233
2023-03-30T10:49:44.860Z,955.1889
2023-03-30T10:50:45.558Z,955.1878
2023-03-30T10:51:46.403Z,955.2092
2023-03-30T10:52:56.331Z,955.2337
2023-03-30T10:53:49.330Z,955.2584
2023-03-30T10:54:50.095Z,955.2808
2023-03-30T10:55:50.847Z,955.2993
2023-03-30T10:56:51.717Z,955.3033
2023-03-30T10:57:52.559Z,955.2933
2023-03-30T10:58:53.364Z,955.2804
2023-03-30T10:59:54.132Z,955.2570
2023-03-30T11:00:55.061Z,955.2552
2023-03-30T11:01:55.816Z,955.2274
2023-03-30T11:02:56.662Z,955.2330
2023-03-30T11:03:57.649Z,955.2359
2023-03-30T11:04:58.233Z,955.2373
2023-03-30T11:05:59.011Z,955.2174
2023-03-30T11:06:59.663Z,955.2322
2023-03-30T11:08:00.317Z,955.2126
2023-03-30T11:09:01.124Z,955.2034
2023-03-30T11:10:01.975Z,955.2233
2023-03-30T11:11:02.697Z,955.2433
2023-03-30T11:12:03.493Z,955.2697
2023-03-30T11:13:04.295Z,955.2745
2023-03-30T11:14:05.085Z,955.2792
2023-03-30T11:15:05.916Z,955.2797
2023-03-30T11:16:06.886Z,955.2582
2023-03-30T11:17:08.812Z,955.2745
2023-03-30T11:18:09.831Z,955.2726
2023-03-30T11:19:10.749Z,955.2892
2023-03-30T11:20:11.650Z,955.2959
2023-03-30T11:21:12.413Z,955.3230
2023-03-30T11:22:13.196Z,955.3278
2023-03-30T11:23:13.982Z,955.3204
2023-03-30T11:24:14.772Z,955.2989
2023-03-30T11:25:15.548Z,955.3256
2023-03-30T11:26:16.328Z,955.3544
2023-03-30T11:27:17.075Z,955.3804
2023-03-30T11:28:17.877Z,955.3789
2023-03-30T11:29:18.647Z,955.3474
2023-03-30T11:30:19.468Z,955.3604
2023-03-30T11:31:20.250Z,955.3263
2023-03-30T11:32:21.042Z,955.3444
2023-03-30T11:33:21.808Z,955.3522
2023-03-30T11:34:22.616Z,955.3200
2023-03-30T11:35:23.394Z,955.3400
2023-03-30T11:36:24.213Z,955.3522
2023-03-30T11:37:24.932Z,955.3685
2023-03-30T11:38:25.572Z,955.3245
2023-03-30T11:39:32.230Z,955.3163
2023-03-30T11:40:27.230Z,955.3016
2023-03-30T11:41:28.022Z,955.2874
2023-03-30T11:42:28.907Z,955.2793
2023-03-30T11:43:29.603Z,955.2634
2023-03-30T11:44:30.298Z,955.2959
2023-03-30T11:45:30.932Z,955.3007
2023-03-30T11:46:31.729Z,955.3041
2023-03-30T11:47:32.635Z,955.3174
2023-03-30T11:48:33.962Z,955.3282
2023-03-30T11:49:34.892Z,955.3074
2023-03-30T11:50:36.248Z,955.3118
2023-03-30T11:51:37.133Z,955.3671
2023-03-30T11:52:37.842Z,955.3385
2023-03-30T11:53:38.776Z,955.2966
2023-03-30T11:54:39.695Z,955.3193
2023-03-30T11:55:39.753Z,955.3470
2023-03-30T11:56:40.565Z,955.3455
2023-03-30T11:57:41.490Z,955.3696
2023-03-30T11:58:42.313Z,955.3781
2023-03-30T11:59:45.162Z,955.3752
2023-03-30T12:00:45.065Z,955.4342